Time;durP1;ratioP1;P1;durP2;ratioP2;P2;SDS_P1;SDS_P2;PMS_P1;PMS_P2;Temp;Humidity;BMP_temperature;BMP_pressure;BME280_temperature;BME280_humidity;BME280_pressure;Samples;Min_cycle;Max_cycle;Signal;HPM_P1;HPM_P2
2022/01/07 00:01:22;;;;;;;1.80;1.70;;;0.40;87.00;-0.60;98588.00;;;;5097335;28;20326;-83
2022/01/07 00:03:51;;;;;;;1.20;1.17;;;0.50;86.90;-0.50;98595.00;;;;5097254;28;20240;-83
2022/01/07 00:06:19;;;;;;;1.80;1.27;;;0.40;87.10;-0.50;98582.00;;;;5097075;28;20236;-83
2022/01/07 00:08:50;;;;;;;1.00;1.00;;;0.50;87.20;-0.40;98584.00;;;;5097360;28;20205;-83
2022/01/07 00:11:16;;;;;;;0.90;0.90;;;0.60;87.10;-0.20;98578.00;;;;5097338;28;20578;-83
2022/01/07 00:13:45;;;;;;;1.50;1.20;;;0.70;87.10;-0.30;98565.00;;;;5097238;28;20292;-81
2022/01/07 00:16:12;;;;;;;1.77;1.67;;;0.70;86.80;-0.30;98562.00;;;;5097020;28;20194;-81
2022/01/07 00:18:41;;;;;;;1.63;1.53;;;0.70;86.80;-0.40;98569.00;;;;5097180;28;20202;-80
2022/01/07 00:21:08;;;;;;;1.63;1.53;;;0.60;87.10;-0.50;98565.00;;;;5097521;28;20206;-83
2022/01/07 00:23:35;;;;;;;3.23;2.73;;;0.60;86.90;-0.50;98551.00;;;;5097613;28;20587;-83
2022/01/07 00:26:03;;;;;;;2.40;1.53;;;0.60;87.50;-0.40;98563.00;;;;5096993;28;20316;-83
2022/01/07 00:28:29;;;;;;;2.40;2.20;;;0.50;87.80;-0.50;98547.00;;;;5096964;28;20652;-83
2022/01/07 00:30:56;;;;;;;1.33;1.33;;;0.50;87.20;-0.40;98547.00;;;;5114058;28;20320;-83
2022/01/07 00:33:22;;;;;;;1.70;1.60;;;0.60;86.90;-0.50;98541.00;;;;5097093;28;20198;-83
2022/01/07 00:35:50;;;;;;;1.30;0.90;;;0.50;86.90;-0.50;98545.00;;;;5096874;28;20194;-81
2022/01/07 00:38:17;;;;;;;7.10;1.47;;;0.50;87.20;-0.50;98550.00;;;;5096778;28;20225;-83
2022/01/07 00:40:43;;;;;;;2.10;2.00;;;0.50;87.30;-0.60;98556.00;;;;5096843;28;20243;-80
2022/01/07 00:43:11;;;;;;;1.93;1.83;;;0.40;87.60;-0.70;98545.00;;;;5096880;28;20633;-83
2022/01/07 00:45:38;;;;;;;1.30;1.30;;;0.40;88.00;-0.60;98554.00;;;;5096684;28;20218;-82
2022/01/07 00:48:05;;;;;;;1.23;1.17;;;0.40;87.90;-0.70;98552.00;;;;5096679;28;20205;-80
2022/01/07 00:50:32;;;;;;;1.43;1.43;;;0.40;87.30;-0.70;98502.00;;;;5096722;28;20198;-82
2022/01/07 00:53:00;;;;;;;1.80;1.70;;;0.40;87.30;-0.70;98545.00;;;;5096924;28;20208;-81
2022/01/07 00:55:27;;;;;;;3.13;1.60;;;0.30;87.70;-0.80;98536.00;;;;5096667;28;20231;-82
2022/01/07 00:57:55;;;;;;;0.90;0.90;;;0.30;87.90;-0.60;98526.00;;;;5113532;28;20658;-82
2022/01/07 01:00:26;;;;;;;2.20;1.80;;;0.30;87.50;-0.60;98529.00;;;;5096668;28;20213;-83
2022/01/07 01:02:55;;;;;;;1.43;1.33;;;0.40;87.20;-0.50;98517.00;;;;5096552;28;20230;-83
2022/01/07 01:05:22;;;;;;;1.07;1.07;;;0.40;86.80;-0.40;98534.00;;;;5096472;28;20212;-82
2022/01/07 01:07:49;;;;;;;2.87;1.60;;;0.50;87.30;-0.50;98526.00;;;;5096389;28;20225;-83
2022/01/07 01:10:22;;;;;;;2.40;2.03;;;0.50;86.30;-0.40;98510.00;;;;5096335;28;20217;-82
2022/01/07 01:12:49;;;;;;;0.80;0.80;;;0.50;86.40;-0.50;98515.00;;;;5096655;28;20274;-82
2022/01/07 01:15:21;;;;;;;1.93;1.83;;;0.50;86.40;-0.40;98527.00;;;;5096191;28;20293;-82
2022/01/07 01:17:49;;;;;;;1.20;1.20;;;0.50;86.30;-0.50;98528.00;;;;5096358;28;20209;-80
2022/01/07 01:20:19;;;;;;;0.93;0.93;;;0.60;85.90;-0.40;98524.00;;;;5113204;28;20284;-83
2022/01/07 01:22:46;;;;;;;1.20;1.20;;;0.60;85.90;-0.40;98511.00;;;;5096123;28;20237;-83
2022/01/07 01:25:13;;;;;;;4.97;2.30;;;0.60;86.20;-0.50;98514.00;;;;5096194;28;20680;-82
2022/01/07 01:27:40;;;;;;;1.40;1.30;;;0.60;84.80;-0.50;98513.00;;;;5096175;28;20232;-82
2022/01/07 01:30:13;;;;;;;1.13;1.13;;;0.50;85.00;-0.70;98513.00;;;;5096100;28;20229;-82
2022/01/07 01:32:39;;;;;;;1.43;1.33;;;0.40;84.40;-0.70;98515.00;;;;5097662;28;20213;-82
2022/01/07 01:35:08;;;;;;;1.97;1.83;;;0.30;85.10;-0.60;98523.00;;;;5099448;28;20254;-82
2022/01/07 01:37:35;;;;;;;1.37;1.37;;;0.30;85.40;-0.60;98516.00;;;;5099511;28;20232;-82
2022/01/07 01:40:03;;;;;;;1.53;1.43;;;0.40;85.70;-0.60;98517.00;;;;5099539;28;20579;-82
2022/01/07 01:42:30;;;;;;;1.07;1.07;;;0.40;85.40;-0.60;98504.00;;;;5099424;28;20256;-83
2022/01/07 01:44:57;;;;;;;0.70;0.70;;;0.40;85.20;-0.60;98508.00;;;;5116494;28;20200;-81
2022/01/07 01:47:24;;;;;;;0.77;0.77;;;0.40;85.00;-0.60;98518.00;;;;5099409;28;20234;-82
2022/01/07 01:49:50;;;;;;;2.20;2.03;;;0.40;84.60;-0.60;98502.00;;;;5099453;28;20305;-81
2022/01/07 01:52:17;;;;;;;1.17;1.17;;;0.30;85.60;-0.60;98500.00;;;;5099365;28;20194;-80
2022/01/07 01:54:44;;;;;;;1.27;1.27;;;0.40;84.90;-0.70;98483.00;;;;5099580;28;20513;-82
2022/01/07 01:57:12;;;;;;;1.97;1.30;;;0.30;84.90;-0.70;98491.00;;;;5099446;28;20689;-83
2022/01/07 01:59:38;;;;;;;0.90;0.90;;;0.30;84.70;-0.60;98490.00;;;;5099230;28;20244;-81
2022/01/07 02:02:05;;;;;;;2.23;2.13;;;0.30;85.00;-0.70;98475.00;;;;5099242;28;20201;-82
2022/01/07 02:04:31;;;;;;;6.13;1.53;;;0.30;84.80;-0.80;98468.00;;;;5099079;28;20593;-82
2022/01/07 02:06:58;;;;;;;0.90;0.90;;;0.30;84.80;-0.80;98469.00;;;;5099265;28;20578;-82
2022/01/07 02:09:34;;;;;;;1.27;1.27;;;0.30;85.90;-0.90;98455.00;;;;5099070;28;20325;-82
2022/01/07 02:12:05;;;;;;;1.20;1.20;;;0.20;85.10;-0.90;98485.00;;;;5099126;28;20229;-82
2022/01/07 02:14:34;;;;;;;1.23;1.13;;;0.20;85.10;-0.90;98452.00;;;;5099220;28;20201;-82
2022/01/07 02:17:09;;;;;;;0.80;0.80;;;0.20;85.60;-0.70;98481.00;;;;5099186;28;20210;-81
2022/01/07 02:19:36;;;;;;;1.90;1.33;;;0.20;85.70;-0.60;98473.00;;;;5099012;28;20289;-83
2022/01/07 02:22:04;;;;;;;1.70;1.53;;;0.30;85.50;-0.60;98466.00;;;;5115990;28;20526;-83
2022/01/07 02:24:31;;;;;;;0.80;0.80;;;0.20;84.60;-0.60;98467.00;;;;5101912;28;20650;-82
2022/01/07 02:26:58;;;;;;;1.47;1.43;;;0.30;84.40;-0.50;98460.00;;;;5127976;28;20237;-81
2022/01/07 02:29:25;;;;;;;1.17;1.17;;;0.30;84.60;-0.50;98455.00;;;;5131074;28;20228;-80
2022/01/07 02:31:53;;;;;;;1.37;1.27;;;0.40;84.50;-0.50;98446.00;;;;5111015;28;20226;-81
2022/01/07 02:34:19;;;;;;;1.57;1.47;;;0.40;84.30;-0.70;98447.00;;;;5127954;28;20217;-83
2022/01/07 02:36:47;;;;;;;1.40;1.40;;;0.40;83.70;-0.50;98448.00;;;;5111305;28;20284;-82
2022/01/07 02:39:13;;;;;;;0.80;0.80;;;0.40;84.40;-0.60;98455.00;;;;5110132;28;20216;-83
2022/01/07 02:41:40;;;;;;;1.30;1.20;;;0.40;84.00;-0.50;98459.00;;;;5111897;28;20294;-83
2022/01/07 02:44:08;;;;;;;1.10;1.10;;;0.40;83.90;-0.50;98448.00;;;;5104070;28;20232;-82
2022/01/07 02:46:35;;;;;;;0.83;0.83;;;0.40;83.50;-0.50;98455.00;;;;5099233;28;20503;-83
2022/01/07 02:49:09;;;;;;;1.00;1.00;;;0.40;83.40;-0.60;98453.00;;;;5098532;28;20595;-82
2022/01/07 02:51:35;;;;;;;1.10;1.10;;;0.40;83.40;-0.60;98454.00;;;;5098607;28;20206;-82
2022/01/07 02:54:03;;;;;;;0.97;0.97;;;0.40;83.50;-0.70;98458.00;;;;5115420;28;20222;-82
2022/01/07 02:56:30;;;;;;;1.47;1.37;;;0.30;83.70;-0.60;98446.00;;;;5098629;28;20234;-82
2022/01/07 02:58:56;;;;;;;1.03;1.03;;;0.40;84.20;-0.60;98457.00;;;;5098449;28;20297;-82
2022/01/07 03:01:23;;;;;;;0.80;0.80;;;0.40;84.10;-0.80;98455.00;;;;5098382;28;20202;-81
2022/01/07 03:03:52;;;;;;;0.90;0.90;;;0.30;83.30;-0.80;98459.00;;;;5098419;28;20206;-82
2022/01/07 03:06:20;;;;;;;2.03;1.93;;;0.20;83.60;-0.80;98453.00;;;;5098191;28;20637;-83
2022/01/07 03:08:49;;;;;;;1.43;1.40;;;0.20;83.60;-0.70;98455.00;;;;5098269;28;20301;-81
2022/01/07 03:11:17;;;;;;;0.70;0.70;;;0.30;83.80;-0.70;98443.00;;;;5098148;28;20253;-82
2022/01/07 03:13:44;;;;;;;0.97;0.97;;;0.20;83.80;-0.70;98454.00;;;;5098332;28;20297;-82
2022/01/07 03:16:11;;;;;;;1.03;1.03;;;0.20;83.60;-0.80;98450.00;;;;5098076;28;20297;-82
2022/01/07 03:18:38;;;;;;;1.20;1.20;;;0.20;83.70;-0.70;98464.00;;;;5098184;28;20229;-82
2022/01/07 03:21:05;;;;;;;0.70;0.70;;;0.20;84.00;-0.80;98458.00;;;;5098131;28;20609;-82
2022/01/07 03:23:36;;;;;;;1.77;1.10;;;0.20;83.50;-0.90;98479.00;;;;5097928;28;20253;-82
2022/01/07 03:26:03;;;;;;;1.43;1.43;;;0.10;83.30;-0.90;98464.00;;;;5097944;28;20225;-82
2022/01/07 03:28:31;;;;;;;11.33;3.07;;;0.10;83.90;-0.80;98459.00;;;;5097872;28;20233;-80
2022/01/07 03:30:57;;;;;;;1.30;1.20;;;0.10;84.10;-0.80;98457.00;;;;5115009;28;20202;-82
2022/01/07 03:33:25;;;;;;;1.00;1.00;;;0.20;84.40;-0.80;98450.00;;;;5097714;28;20264;-82
2022/01/07 03:35:52;;;;;;;1.60;1.50;;;0.10;83.50;-0.80;98429.00;;;;5097958;28;20610;-82
2022/01/07 03:38:19;;;;;;;3.80;1.50;;;0.20;83.30;-0.80;98449.00;;;;5097821;28;20197;-80
2022/01/07 03:40:47;;;;;;;1.10;1.00;;;0.10;84.10;-0.70;98443.00;;;;5097767;28;20209;-81
2022/01/07 03:43:14;;;;;;;1.50;1.33;;;0.20;84.00;-0.60;98413.00;;;;5097743;28;20248;-82
2022/01/07 03:45:41;;;;;;;1.50;1.10;;;0.20;83.40;-0.80;98445.00;;;;5097582;28;20662;-82
2022/01/07 03:48:08;;;;;;;1.00;1.00;;;0.20;82.90;-0.90;98450.00;;;;5097568;28;20649;-82
2022/01/07 03:50:38;;;;;;;1.10;1.10;;;0.10;83.20;-0.90;98434.00;;;;5097361;28;20226;-81
2022/01/07 03:53:05;;;;;;;1.77;1.67;;;0.10;84.60;-0.90;98443.00;;;;5097564;28;20252;-80
2022/01/07 03:55:33;;;;;;;1.97;1.87;;;0.10;83.70;-0.90;98445.00;;;;5097005;28;20220;-81
2022/01/07 03:58:02;;;;;;;1.47;1.47;;;0.10;83.90;-0.90;98449.00;;;;5097402;28;20202;-80
2022/01/07 04:00:34;;;;;;;1.50;1.40;;;0.10;84.10;-1.00;98448.00;;;;5097373;28;20218;-82
2022/01/07 04:03:06;;;;;;;0.60;0.60;;;0.10;83.90;-1.00;98449.00;;;;5097408;28;20193;-82
2022/01/07 04:05:36;;;;;;;0.70;0.70;;;0.10;84.40;-1.00;98438.00;;;;5097272;28;20202;-82
2022/01/07 04:08:04;;;;;;;1.00;1.00;;;0.00;84.20;-1.00;98444.00;;;;5097179;28;20522;-82
2022/01/07 04:10:31;;;;;;;0.87;0.87;;;0.00;84.40;-0.90;98436.00;;;;5097310;28;20229;-82
2022/01/07 04:13:01;;;;;;;1.10;1.10;;;0.00;85.10;-1.00;98436.00;;;;5097057;28;20226;-81
2022/01/07 04:15:28;;;;;;;1.53;1.43;;;0.00;83.90;-1.00;98443.00;;;;5097085;28;20217;-81
2022/01/07 04:17:57;;;;;;;1.00;1.00;;;0.00;84.00;-0.90;98432.00;;;;5097058;28;20198;-79
2022/01/07 04:20:30;;;;;;;1.83;1.73;;;0.10;83.60;-1.00;98446.00;;;;5114035;28;20213;-82
2022/01/07 04:22:57;;;;;;;1.10;1.10;;;0.10;83.00;-1.10;98413.00;;;;5097200;28;20212;-83
2022/01/07 04:25:26;;;;;;;1.27;1.17;;;0.00;82.70;-1.30;98445.00;;;;5096618;28;20230;-82
2022/01/07 04:27:59;;;;;;;2.20;1.53;;;-0.20;83.20;-1.30;98455.00;;;;5096796;28;20538;-82
2022/01/07 04:30:31;;;;;;;1.80;1.40;;;-0.20;83.30;-1.30;98433.00;;;;5096892;28;20236;-81
2022/01/07 04:32:58;;;;;;;1.60;1.50;;;-0.20;83.60;-1.50;98452.00;;;;5096659;28;20533;-79
2022/01/07 04:35:28;;;;;;;1.10;1.10;;;-0.30;83.80;-1.30;98446.00;;;;5113700;28;20307;-80
2022/01/07 04:37:55;;;;;;;0.80;0.80;;;-0.30;83.70;-1.40;98443.00;;;;5096637;28;20214;-79
2022/01/07 04:40:23;;;;;;;1.10;1.10;;;-0.30;83.40;-1.30;98460.00;;;;5096716;28;20198;-79
2022/01/07 04:42:52;;;;;;;1.80;1.53;;;-0.30;83.50;-1.30;98448.00;;;;5096780;28;20276;-81
2022/01/07 04:45:21;;;;;;;0.80;0.80;;;-0.20;82.50;-1.20;98453.00;;;;5096546;28;20197;-82
2022/01/07 04:47:48;;;;;;;0.80;0.80;;;-0.20;82.90;-1.20;98458.00;;;;5096618;28;20226;-82
2022/01/07 04:50:18;;;;;;;0.83;0.83;;;-0.20;82.70;-1.20;98449.00;;;;5096746;28;20240;-81
2022/01/07 04:52:46;;;;;;;1.17;1.17;;;-0.20;82.40;-1.20;98453.00;;;;5096644;28;20226;-82
2022/01/07 04:55:14;;;;;;;0.80;0.80;;;-0.20;82.30;-1.30;98447.00;;;;5096614;28;20282;-82
2022/01/07 04:57:42;;;;;;;1.80;1.27;;;-0.30;82.60;-1.20;98457.00;;;;5096580;28;20222;-81
2022/01/07 05:00:10;;;;;;;0.70;0.70;;;-0.20;82.20;-1.30;98431.00;;;;5096718;28;20293;-81
2022/01/07 05:02:36;;;;;;;2.40;1.43;;;-0.30;82.60;-1.10;98451.00;;;;5096413;28;20197;-82
2022/01/07 05:05:04;;;;;;;1.40;1.20;;;-0.20;82.10;-1.30;98453.00;;;;5096607;28;20586;-81
2022/01/07 05:07:31;;;;;;;0.70;0.70;;;-0.30;82.40;-1.40;98463.00;;;;5098085;28;20232;-82
2022/01/07 05:09:58;;;;;;;0.80;0.80;;;-0.40;82.90;-1.40;98453.00;;;;5117388;28;20225;-82
2022/01/07 05:12:25;;;;;;;1.00;1.00;;;-0.40;83.00;-1.30;98453.00;;;;5102159;28;20836;-82
2022/01/07 05:14:51;;;;;;;0.80;0.80;;;-0.30;83.00;-1.20;98451.00;;;;5100242;28;20222;-82
2022/01/07 05:17:18;;;;;;;0.90;0.87;;;-0.10;82.50;-1.30;98451.00;;;;5100161;28;20239;-82
2022/01/07 05:19:44;;;;;;;1.00;1.00;;;-0.20;82.50;-1.20;98452.00;;;;5099801;28;20675;-80
2022/01/07 05:22:11;;;;;;;0.80;0.80;;;-0.20;82.10;-1.30;98458.00;;;;5100050;28;20213;-83
2022/01/07 05:24:38;;;;;;;0.90;0.90;;;-0.20;82.00;-1.30;98463.00;;;;5099862;28;20578;-84
2022/01/07 05:27:06;;;;;;;1.07;1.07;;;-0.30;82.90;-1.20;98460.00;;;;5099838;28;20308;-84
2022/01/07 05:29:35;;;;;;;1.70;1.47;;;-0.30;82.50;-1.10;98454.00;;;;5099875;28;20628;-83
2022/01/07 05:32:02;;;;;;;0.93;0.93;;;-0.10;82.10;-1.10;98453.00;;;;5099817;28;20236;-82
2022/01/07 05:34:31;;;;;;;0.80;0.80;;;-0.10;81.50;-1.10;98441.00;;;;5100424;28;20209;-81
2022/01/07 05:36:58;;;;;;;0.90;0.90;;;-0.10;81.70;-1.10;98391.00;;;;5099956;28;20250;-82
2022/01/07 05:39:25;;;;;;;2.97;1.10;;;-0.10;82.00;-0.80;98437.00;;;;5116638;28;20300;-83
2022/01/07 05:41:51;;;;;;;0.90;0.90;;;0.10;81.60;-1.00;98434.00;;;;5100141;28;20197;-82
2022/01/07 05:44:19;;;;;;;0.90;0.90;;;0.00;81.30;-1.00;98424.00;;;;5099908;28;20266;-81
2022/01/07 05:46:46;;;;;;;1.30;1.27;;;0.00;81.60;-1.00;98424.00;;;;5099461;28;20218;-80
2022/01/07 05:49:13;;;;;;;1.07;1.07;;;0.10;81.80;-1.00;98419.00;;;;5099424;28;20228;-79
2022/01/07 05:51:41;;;;;;;1.30;1.30;;;0.00;81.60;-1.10;98370.00;;;;5099533;28;20229;-81
2022/01/07 05:54:08;;;;;;;0.83;0.83;;;-0.10;81.90;-1.10;98424.00;;;;5099371;28;20298;-81
2022/01/07 05:56:34;;;;;;;1.10;1.10;;;-0.10;82.90;-1.10;98414.00;;;;5099492;28;20298;-82
2022/01/07 05:59:01;;;;;;;1.40;1.07;;;-0.10;83.40;-1.10;98420.00;;;;5099282;28;20205;-82
2022/01/07 06:01:28;;;;;;;1.27;1.27;;;-0.10;82.90;-0.80;98407.00;;;;5099768;28;20209;-82
2022/01/07 06:03:55;;;;;;;0.80;0.80;;;0.00;82.30;-1.00;98406.00;;;;5100736;28;20205;-82
2022/01/07 06:06:21;;;;;;;1.03;1.03;;;0.00;82.30;-0.90;98408.00;;;;5100825;28;20325;-82
2022/01/07 06:08:48;;;;;;;0.90;0.90;;;0.10;82.30;-0.80;98414.00;;;;5099330;28;20297;-82
2022/01/07 06:11:14;;;;;;;1.77;1.67;;;0.10;83.10;-0.80;98412.00;;;;5099785;28;20230;-82
2022/01/07 06:13:41;;;;;;;1.50;1.30;;;0.20;83.30;-0.70;98405.00;;;;5099146;28;20263;-80
2022/01/07 06:16:08;;;;;;;1.47;1.37;;;0.20;82.20;-0.80;98410.00;;;;5100280;28;20307;-82
2022/01/07 06:18:39;;;;;;;1.47;1.37;;;0.20;82.20;-1.00;98420.00;;;;5099423;28;20208;-83
2022/01/07 06:21:06;;;;;;;1.03;1.03;;;0.10;82.80;-0.80;98397.00;;;;5106843;28;20194;-82
2022/01/07 06:23:32;;;;;;;0.80;0.80;;;0.10;83.50;-0.80;98404.00;;;;5111536;28;20194;-82
2022/01/07 06:26:01;;;;;;;0.87;0.87;;;0.20;82.90;-0.70;98401.00;;;;5110383;28;20198;-83
2022/01/07 06:28:30;;;;;;;1.47;1.47;;;0.20;83.10;-0.80;98407.00;;;;5100692;28;20249;-81
2022/01/07 06:30:59;;;;;;;2.00;1.77;;;0.10;83.40;-0.80;98396.00;;;;5101041;28;20575;-82
2022/01/07 06:33:28;;;;;;;4.07;2.30;;;0.20;83.20;-0.70;98394.00;;;;5100326;28;20237;-82
2022/01/07 06:35:58;;;;;;;1.17;1.17;;;0.20;83.50;-0.70;98400.00;;;;5106254;28;20202;-82
2022/01/07 06:38:27;;;;;;;0.80;0.80;;;0.20;83.40;-0.80;98405.00;;;;5110895;28;20207;-83
2022/01/07 06:40:53;;;;;;;1.93;1.83;;;0.20;84.80;-0.60;98400.00;;;;5108191;28;20229;-82
2022/01/07 06:43:20;;;;;;;1.53;1.50;;;0.30;83.50;-0.60;98403.00;;;;5100235;28;20651;-82
2022/01/07 06:45:49;;;;;;;2.03;1.83;;;0.30;83.60;-0.70;98399.00;;;;5099117;28;20190;-80
2022/01/07 06:48:18;;;;;;;0.93;0.93;;;0.20;83.70;-0.60;98399.00;;;;5098811;28;20241;-82
2022/01/07 06:50:46;;;;;;;1.33;1.30;;;0.30;84.10;-0.80;98364.00;;;;5098969;28;20221;-82
2022/01/07 06:53:15;;;;;;;0.80;0.80;;;0.30;84.20;-0.70;98403.00;;;;5098830;28;20202;-82
2022/01/07 06:55:42;;;;;;;1.17;1.17;;;0.30;84.20;-0.70;98401.00;;;;5098622;28;20260;-82
2022/01/07 06:58:09;;;;;;;0.70;0.70;;;0.30;83.80;-0.50;98383.00;;;;5098476;28;20230;-82
2022/01/07 07:00:38;;;;;;;1.10;1.03;;;0.40;83.90;-0.60;98378.00;;;;5098285;28;20205;-82
2022/01/07 07:03:07;;;;;;;1.93;1.83;;;0.40;83.20;-0.50;98372.00;;;;5098506;28;20251;-82
2022/01/07 07:05:34;;;;;;;1.17;1.17;;;0.40;83.80;-0.50;98375.00;;;;5098629;28;20536;-82
2022/01/07 07:08:00;;;;;;;1.07;1.07;;;0.50;83.60;-0.50;98372.00;;;;5098412;28;20254;-82
2022/01/07 07:10:30;;;;;;;1.20;1.10;;;0.40;83.50;-0.70;98386.00;;;;5098577;28;20212;-82
2022/01/07 07:12:56;;;;;;;1.10;1.10;;;0.40;83.70;-0.50;98367.00;;;;5098421;28;20233;-82
2022/01/07 07:15:23;;;;;;;1.17;1.17;;;0.50;83.80;-0.50;98372.00;;;;5098367;28;20709;-83
2022/01/07 07:17:49;;;;;;;1.40;1.30;;;0.50;83.20;-0.50;98370.00;;;;5098902;28;20222;-80
2022/01/07 07:20:16;;;;;;;1.83;1.73;;;0.50;84.20;-0.40;98362.00;;;;5098674;28;20251;-79
2022/01/07 07:22:42;;;;;;;1.00;1.00;;;0.60;83.20;-0.30;98365.00;;;;5098378;28;20205;-83
2022/01/07 07:25:10;;;;;;;2.30;1.23;;;0.60;82.70;-0.30;98357.00;;;;5098239;28;20670;-83
2022/01/07 07:27:37;;;;;;;1.13;1.13;;;0.60;82.70;-0.40;98364.00;;;;5098109;28;20221;-79
2022/01/07 07:30:06;;;;;;;1.67;1.57;;;0.60;82.20;-0.30;98358.00;;;;5097333;28;20250;-81
2022/01/07 07:32:36;;;;;;;1.10;1.10;;;0.70;82.70;-0.40;98346.00;;;;5098220;28;20205;-83
2022/01/07 07:36:26;;;;;;;1.30;1.20;;;0.60;82.70;-0.30;98366.00;;;;5097803;28;20233;-82
2022/01/07 07:37:51;;;;;;;3.20;1.47;;;0.60;82.40;-0.50;98313.00;;;;5097764;28;20674;-80
2022/01/07 07:40:18;;;;;;;0.90;0.90;;;0.60;82.00;-0.30;98303.00;;;;5097535;28;20264;-81
2022/01/07 07:42:45;;;;;;;1.37;1.33;;;0.60;82.30;-0.10;98350.00;;;;5097707;28;20621;-83
2022/01/07 07:45:13;;;;;;;2.07;1.50;;;0.70;81.60;-0.20;98353.00;;;;5097699;28;20198;-84
2022/01/07 07:47:40;;;;;;;0.90;0.90;;;0.70;81.40;-0.20;98348.00;;;;5097617;28;20229;-84
2022/01/07 07:50:08;;;;;;;2.00;1.90;;;0.70;81.80;-0.10;98347.00;;;;5097754;28;20206;-80
2022/01/07 07:52:35;;;;;;;1.00;1.00;;;0.80;81.30;0.00;98350.00;;;;5097606;28;20551;-79
2022/01/07 07:55:01;;;;;;;1.20;1.10;;;0.80;80.70;0.00;98355.00;;;;5098057;28;20563;-79
2022/01/07 07:57:28;;;;;;;1.13;1.13;;;0.90;81.50;0.00;98343.00;;;;5097614;28;20206;-77
2022/01/07 07:59:57;;;;;;;0.60;0.60;;;0.90;81.50;0.10;98338.00;;;;5097277;28;20603;-77
2022/01/07 08:02:24;;;;;;;0.70;0.70;;;1.00;80.10;0.00;98337.00;;;;5097355;28;20203;-77
2022/01/07 08:04:51;;;;;;;1.17;1.17;;;1.00;80.20;-0.10;98344.00;;;;5097314;28;20308;-77
2022/01/07 08:07:17;;;;;;;1.43;1.33;;;1.00;80.70;0.00;98342.00;;;;5097286;28;20239;-76
2022/01/07 08:09:45;;;;;;;2.93;1.60;;;1.00;80.90;0.00;98330.00;;;;5097323;28;20277;-79
2022/01/07 08:12:21;;;;;;;2.40;1.47;;;1.00;80.30;0.20;98334.00;;;;5097110;28;20223;-75
2022/01/07 08:17:33;;;;;;;0.70;0.70;;;1.00;80.30;0.40;98326.00;;;;5097207;28;20267;-83
2022/01/07 08:19:59;;;;;;;2.33;2.13;;;1.20;80.40;0.30;98330.00;;;;5097113;28;20522;-81
2022/01/07 08:22:26;;;;;;;1.07;1.07;;;1.20;79.10;0.30;98340.00;;;;5097128;28;20289;-79
2022/01/07 08:24:55;;;;;;;0.93;0.93;;;1.20;79.60;0.30;98335.00;;;;5097096;28;20202;-78
2022/01/07 08:27:22;;;;;;;1.07;1.07;;;1.20;79.70;0.30;98321.00;;;;5096806;28;20221;-78
2022/01/07 08:29:51;;;;;;;3.20;2.63;;;1.20;79.40;0.50;98324.00;;;;5096821;28;20222;-80
2022/01/07 08:35:07;;;;;;;0.70;0.70;;;1.40;78.80;0.40;98324.00;;;;5097071;28;20203;-77
2022/01/07 08:37:34;;;;;;;2.53;1.47;;;1.30;78.10;0.50;98331.00;;;;5096958;28;20218;-79
2022/01/07 08:40:03;;;;;;;1.07;1.07;;;1.40;78.10;0.50;98326.00;;;;5096833;28;20203;-78
2022/01/07 08:42:30;;;;;;;1.03;1.03;;;1.40;77.70;0.60;98323.00;;;;5095531;28;20226;-78
2022/01/07 08:44:56;;;;;;;3.80;1.00;;;1.50;77.70;0.30;98322.00;;;;5096620;28;20298;-78
2022/01/07 08:47:25;;;;;;;6.00;1.70;;;1.40;78.10;0.50;98325.00;;;;5096605;28;20291;-76
2022/01/07 08:49:53;;;;;;;0.70;0.70;;;1.40;77.90;0.60;98325.00;;;;5096640;28;20230;-81
2022/01/07 08:52:21;;;;;;;1.10;1.10;;;1.50;78.00;0.60;98324.00;;;;5096966;28;20708;-77
2022/01/07 08:54:51;;;;;;;1.20;1.20;;;1.50;78.20;0.70;98326.00;;;;5096797;28;20195;-78
2022/01/07 08:57:19;;;;;;;2.60;1.40;;;1.60;77.90;0.60;98322.00;;;;5096451;28;20301;-80
2022/01/07 08:59:47;;;;;;;2.90;1.17;;;1.50;78.00;0.60;98311.00;;;;5096666;28;20615;-82
2022/01/07 09:02:14;;;;;;;1.30;1.20;;;1.60;78.20;0.70;98312.00;;;;5096953;28;20420;-84
2022/01/07 09:04:42;;;;;;;1.40;1.13;;;1.70;78.30;0.80;98311.00;;;;5097192;28;20202;-80
2022/01/07 09:07:09;;;;;;;1.13;1.13;;;1.70;77.50;0.90;98316.00;;;;5096954;28;20326;-81
2022/01/07 09:09:36;;;;;;;1.37;1.27;;;1.80;77.00;1.00;98324.00;;;;5096657;28;20213;-83
2022/01/07 09:12:04;;;;;;;1.00;1.00;;;1.80;76.50;1.10;98324.00;;;;5096506;28;20206;-83
2022/01/07 09:14:33;;;;;;;1.00;1.00;;;1.90;75.30;1.10;98318.00;;;;5096136;28;20313;-80
2022/01/07 09:17:00;;;;;;;1.13;0.97;;;1.90;75.70;0.90;98325.00;;;;5096329;28;20308;-83
2022/01/07 09:19:29;;;;;;;0.73;0.73;;;1.80;76.30;1.00;98321.00;;;;5096299;28;20199;-82
2022/01/07 09:21:56;;;;;;;1.63;1.53;;;1.90;75.90;1.10;98285.00;;;;5096365;28;20358;-81
2022/01/07 09:24:23;;;;;;;1.30;1.00;;;1.90;75.30;1.10;98315.00;;;;5096417;28;20214;-83
2022/01/07 09:26:51;;;;;;;1.50;1.40;;;1.90;75.10;0.90;98299.00;;;;5096171;28;20519;-81
2022/01/07 09:29:17;;;;;;;0.97;0.97;;;1.90;75.60;1.10;98310.00;;;;5096402;28;20203;-86
2022/01/07 09:31:44;;;;;;;1.00;1.00;;;2.10;75.30;1.30;98311.00;;;;5113206;28;20273;-80
2022/01/07 09:34:11;;;;;;;1.00;1.00;;;2.10;74.90;1.30;98299.00;;;;5096445;28;20231;-79
2022/01/07 09:36:38;;;;;;;2.07;1.90;;;2.10;74.60;1.30;98316.00;;;;5096284;28;20199;-79
2022/01/07 09:39:04;;;;;;;2.77;1.47;;;2.10;74.70;1.30;98307.00;;;;5095980;28;20259;-79
2022/01/07 09:41:31;;;;;;;0.93;0.93;;;2.20;74.20;1.40;98318.00;;;;5096008;28;20251;-78
2022/01/07 09:44:00;;;;;;;0.63;0.63;;;2.20;74.30;1.20;98305.00;;;;5096065;28;20200;-80
2022/01/07 09:46:28;;;;;;;1.77;1.67;;;2.20;74.60;1.40;98307.00;;;;5095853;28;20334;-79
2022/01/07 09:48:55;;;;;;;1.37;1.30;;;2.20;74.70;1.40;98300.00;;;;5096017;28;20208;-77
2022/01/07 09:51:22;;;;;;;1.00;1.00;;;2.20;74.10;1.40;98305.00;;;;5095941;28;20301;-80
2022/01/07 09:53:49;;;;;;;0.90;0.90;;;2.20;74.10;1.20;98298.00;;;;5097778;28;20203;-78
2022/01/07 09:56:17;;;;;;;2.13;1.67;;;2.20;73.90;1.20;98302.00;;;;5099500;28;20223;-81
2022/01/07 09:58:44;;;;;;;1.10;1.10;;;2.10;74.20;1.10;98290.00;;;;5099329;28;20227;-79
2022/01/07 10:01:16;;;;;;;0.90;0.90;;;2.10;74.70;1.20;98304.00;;;;5099509;28;20224;-82
2022/01/07 10:03:44;;;;;;;1.93;1.33;;;2.20;74.90;1.50;98286.00;;;;5099148;28;20206;-79
2022/01/07 10:06:21;;;;;;;16.33;1.17;;;2.30;75.40;1.50;98285.00;;;;5116205;28;20198;-81
2022/01/07 10:09:01;;;;;;;3.13;1.37;;;2.40;74.00;1.40;98291.00;;;;5099005;28;20210;-78
2022/01/07 10:11:30;;;;;;;0.73;0.73;;;2.30;74.20;1.40;98289.00;;;;5099749;28;20250;-81
2022/01/07 10:14:17;;;;;;;0.93;0.93;;;2.30;74.80;1.50;98295.00;;;;5099262;28;20201;-79
2022/01/07 10:16:51;;;;;;;0.63;0.63;;;2.40;73.80;1.20;98273.00;;;;5099007;28;20207;-78
2022/01/07 10:19:35;;;;;;;2.43;1.63;;;2.20;74.00;1.20;98269.00;;;;5098950;28;20211;-78
2022/01/07 10:22:05;;;;;;;1.37;1.33;;;2.20;75.40;1.40;98272.00;;;;5099019;28;20214;-82
2022/01/07 10:24:51;;;;;;;1.23;1.23;;;2.20;76.00;1.40;98268.00;;;;5098858;28;20235;-82
2022/01/07 10:27:17;;;;;;;1.90;1.73;;;2.40;75.50;1.50;98259.00;;;;5099784;28;20318;-85
2022/01/07 10:29:45;;;;;;;1.77;0.97;;;2.30;74.80;1.60;98266.00;;;;5106503;28;20221;-80
2022/01/07 10:32:37;;;;;;;0.80;0.80;;;2.50;75.40;1.40;98255.00;;;;5114255;28;20247;-81
2022/01/07 10:35:13;;;;;;;0.83;0.83;;;2.30;76.70;1.60;98240.00;;;;5090147;28;20215;-82
2022/01/07 10:37:53;;;;;;;1.23;1.17;;;2.40;76.50;1.50;98254.00;;;;5104711;28;20254;-83
2022/01/07 10:40:28;;;;;;;1.67;1.57;;;2.40;76.30;1.40;98249.00;;;;5107929;28;20218;-80
2022/01/07 10:43:06;;;;;;;0.83;0.83;;;2.30;77.50;1.30;98260.00;;;;5106992;28;20572;-83
2022/01/07 10:45:34;;;;;;;0.90;0.90;;;2.30;77.80;1.40;98254.00;;;;5109657;28;20326;-83
2022/01/07 10:48:01;;;;;;;1.43;1.33;;;2.30;77.70;1.40;98252.00;;;;5110750;28;20250;-79
2022/01/07 10:50:27;;;;;;;0.70;0.70;;;2.30;78.50;1.20;98257.00;;;;5102931;28;20258;-78
2022/01/07 10:53:33;;;;;;;1.00;1.00;;;2.20;79.90;1.10;98246.00;;;;5100121;28;20210;-78
2022/01/07 10:56:12;;;;;;;0.70;0.70;;;2.10;81.10;1.20;98236.00;;;;5099308;28;20670;-79
2022/01/07 10:59:01;;;;;;;0.87;0.87;;;2.20;82.10;1.20;98239.00;;;;5099137;28;20198;-79
2022/01/07 11:01:41;;;;;;;1.70;1.63;;;2.10;82.30;1.10;98231.00;;;;5098908;28;20206;-83
2022/01/07 11:04:13;;;;;;;1.37;1.37;;;2.00;83.20;1.00;98239.00;;;;5097926;28;20265;-83
2022/01/07 11:06:41;;;;;;;0.90;0.90;;;2.00;84.80;1.10;98234.00;;;;5098175;28;20242;-84
2022/01/07 11:09:12;;;;;;;1.67;1.13;;;2.00;84.90;1.10;98232.00;;;;5098484;28;20719;-83
2022/01/07 11:12:03;;;;;;;0.70;0.70;;;2.00;85.00;1.10;98231.00;;;;5098308;28;20619;-85
2022/01/07 11:14:35;;;;;;;2.07;1.87;;;2.00;85.40;1.20;98235.00;;;;5099346;28;20228;-85